WEB kamera na Vojskem več informacij WEB-CAM on Vojsko


Kamera v Zali več informacij Kamera v Zali



Prišlo je do težav v komunikacij. Obišči direktno Meteoalarm web-stran: www.meteoalarm.eu and check the Weather-warnings there .

Nearby METAR Reports

   
LJLJ - Idrija
Updated: 16.12.2018 04:30
Oblačno  
Oblačno  
   Veter: WSW 3.7 km/h
Veter: WSW 3.7 km/h
Temperatura: -2°C
Rosišče: -4°C
Vlaga: 86%
Zračni tlak: 1019 hPa
Oblaki: Oblačno
Visibility: More than 10 km
Cloud details: Oblačno 2000 ft
LJLJ 160330Z 24002KT 9999 OVC020 M02/M04 Q1019 NOSIG
LJPZ - Koper
Updated: 16.12.2018 04:30
Delno oblačno  
Delno oblačno  
   Veter: SE 16.7 km/h
Veter: SE 16.7 km/h
Temperatura: -3°C
Wind Chill: -8°C
Rosišče: -6°C
Vlaga: 80%
Zračni tlak: 1020 hPa
Oblaki: Delno oblačno
Visibility: More than 10 km
Cloud details: Delno oblačno
LJPZ 160330Z AUTO 13009KT 9999 NSC M03/M06 Q1020
LJLJ - Kranj
Updated: 16.12.2018 04:30
Oblačno  
Oblačno  
   Veter: WSW 3.7 km/h
Veter: WSW 3.7 km/h
Temperatura: -2°C
Rosišče: -4°C
Vlaga: 86%
Zračni tlak: 1019 hPa
Oblaki: Oblačno
Visibility: More than 10 km
Cloud details: Oblačno 2000 ft
LJLJ 160330Z 24002KT 9999 OVC020 M02/M04 Q1019 NOSIG

Script developed by  Saratoga-weather.org Adapted for the template by  Weerstation Leuven